sensor_id;sensor_type;location;lat;lon;timestamp;P1;durP1;ratioP1;P2;durP2;ratioP2
80778;SDS011;70170;47.856;10.956;2023-07-16T00:02:20;7.88;;;4.53;;
80778;SDS011;70170;47.856;10.956;2023-07-16T00:04:45;8.40;;;4.70;;
80778;SDS011;70170;47.856;10.956;2023-07-16T00:07:10;8.70;;;4.38;;
80778;SDS011;70170;47.856;10.956;2023-07-16T00:09:35;6.63;;;4.15;;
80778;SDS011;70170;47.856;10.956;2023-07-16T00:12:01;6.30;;;4.10;;
80778;SDS011;70170;47.856;10.956;2023-07-16T00:14:27;5.65;;;4.15;;
80778;SDS011;70170;47.856;10.956;2023-07-16T00:16:52;6.10;;;4.05;;
80778;SDS011;70170;47.856;10.956;2023-07-16T00:19:17;7.80;;;4.80;;
80778;SDS011;70170;47.856;10.956;2023-07-16T00:21:43;5.97;;;4.65;;
80778;SDS011;70170;47.856;10.956;2023-07-16T00:24:08;11.38;;;4.35;;
80778;SDS011;70170;47.856;10.956;2023-07-16T00:26:33;6.35;;;3.85;;
80778;SDS011;70170;47.856;10.956;2023-07-16T00:28:59;8.07;;;4.00;;
80778;SDS011;70170;47.856;10.956;2023-07-16T00:31:24;9.68;;;4.55;;
80778;SDS011;70170;47.856;10.956;2023-07-16T00:33:49;6.30;;;4.53;;
80778;SDS011;70170;47.856;10.956;2023-07-16T00:36:15;5.90;;;4.18;;
80778;SDS011;70170;47.856;10.956;2023-07-16T00:38:40;6.95;;;4.30;;
80778;SDS011;70170;47.856;10.956;2023-07-16T00:41:06;4.50;;;4.07;;
80778;SDS011;70170;47.856;10.956;2023-07-16T00:43:32;5.80;;;3.90;;
80778;SDS011;70170;47.856;10.956;2023-07-16T00:45:57;6.80;;;3.70;;
80778;SDS011;70170;47.856;10.956;2023-07-16T00:48:23;10.43;;;4.45;;
80778;SDS011;70170;47.856;10.956;2023-07-16T00:50:49;6.68;;;4.25;;
80778;SDS011;70170;47.856;10.956;2023-07-16T00:53:19;5.13;;;3.92;;
80778;SDS011;70170;47.856;10.956;2023-07-16T00:55:45;5.20;;;3.95;;
80778;SDS011;70170;47.856;10.956;2023-07-16T00:58:10;7.35;;;4.05;;
80778;SDS011;70170;47.856;10.956;2023-07-16T01:00:37;6.53;;;4.15;;
80778;SDS011;70170;47.856;10.956;2023-07-16T01:03:03;6.53;;;4.15;;
80778;SDS011;70170;47.856;10.956;2023-07-16T01:05:31;11.05;;;4.72;;
80778;SDS011;70170;47.856;10.956;2023-07-16T01:08:02;7.75;;;4.10;;
80778;SDS011;70170;47.856;10.956;2023-07-16T01:10:31;12.02;;;4.20;;
80778;SDS011;70170;47.856;10.956;2023-07-16T01:12:57;8.48;;;4.20;;
80778;SDS011;70170;47.856;10.956;2023-07-16T01:15:23;7.88;;;4.65;;
80778;SDS011;70170;47.856;10.956;2023-07-16T01:17:49;10.88;;;4.13;;
80778;SDS011;70170;47.856;10.956;2023-07-16T01:20:14;4.70;;;4.13;;
80778;SDS011;70170;47.856;10.956;2023-07-16T01:25:24;6.82;;;4.22;;
80778;SDS011;70170;47.856;10.956;2023-07-16T01:28:21;6.15;;;4.03;;
80778;SDS011;70170;47.856;10.956;2023-07-16T01:30:55;5.90;;;4.37;;
80778;SDS011;70170;47.856;10.956;2023-07-16T01:33:22;7.88;;;4.30;;
80778;SDS011;70170;47.856;10.956;2023-07-16T01:35:47;7.35;;;4.25;;
80778;SDS011;70170;47.856;10.956;2023-07-16T01:38:16;7.50;;;4.45;;
80778;SDS011;70170;47.856;10.956;2023-07-16T01:40:43;9.02;;;3.97;;
80778;SDS011;70170;47.856;10.956;2023-07-16T01:43:09;7.57;;;4.45;;
80778;SDS011;70170;47.856;10.956;2023-07-16T01:45:34;5.40;;;4.53;;
80778;SDS011;70170;47.856;10.956;2023-07-16T01:48:03;10.60;;;4.22;;
80778;SDS011;70170;47.856;10.956;2023-07-16T01:50:32;6.15;;;4.13;;
80778;SDS011;70170;47.856;10.956;2023-07-16T01:52:57;9.32;;;4.55;;
80778;SDS011;70170;47.856;10.956;2023-07-16T01:55:22;12.07;;;4.75;;
80778;SDS011;70170;47.856;10.956;2023-07-16T01:57:48;6.00;;;4.50;;
80778;SDS011;70170;47.856;10.956;2023-07-16T02:00:13;9.15;;;4.47;;
80778;SDS011;70170;47.856;10.956;2023-07-16T02:02:39;5.72;;;4.55;;
80778;SDS011;70170;47.856;10.956;2023-07-16T02:05:04;8.93;;;4.88;;
80778;SDS011;70170;47.856;10.956;2023-07-16T02:07:30;7.07;;;4.40;;
80778;SDS011;70170;47.856;10.956;2023-07-16T02:09:55;4.63;;;4.03;;
80778;SDS011;70170;47.856;10.956;2023-07-16T02:12:20;8.82;;;3.90;;
80778;SDS011;70170;47.856;10.956;2023-07-16T02:14:46;7.93;;;4.30;;
80778;SDS011;70170;47.856;10.956;2023-07-16T02:17:11;5.47;;;4.43;;
80778;SDS011;70170;47.856;10.956;2023-07-16T02:19:36;5.88;;;3.83;;
80778;SDS011;70170;47.856;10.956;2023-07-16T02:22:01;5.28;;;4.30;;
80778;SDS011;70170;47.856;10.956;2023-07-16T02:24:27;6.47;;;4.03;;
80778;SDS011;70170;47.856;10.956;2023-07-16T02:26:52;5.78;;;4.35;;
80778;SDS011;70170;47.856;10.956;2023-07-16T02:29:17;8.10;;;4.55;;
80778;SDS011;70170;47.856;10.956;2023-07-16T02:31:43;10.57;;;4.47;;
80778;SDS011;70170;47.856;10.956;2023-07-16T02:34:11;11.70;;;4.22;;
80778;SDS011;70170;47.856;10.956;2023-07-16T02:36:36;4.53;;;4.13;;
80778;SDS011;70170;47.856;10.956;2023-07-16T02:39:01;6.25;;;4.13;;
80778;SDS011;70170;47.856;10.956;2023-07-16T02:41:27;5.22;;;3.95;;
80778;SDS011;70170;47.856;10.956;2023-07-16T02:44:03;6.28;;;4.03;;
80778;SDS011;70170;47.856;10.956;2023-07-16T02:46:29;6.50;;;4.40;;
80778;SDS011;70170;47.856;10.956;2023-07-16T02:48:55;7.53;;;4.60;;
80778;SDS011;70170;47.856;10.956;2023-07-16T02:51:20;4.38;;;3.90;;
80778;SDS011;70170;47.856;10.956;2023-07-16T02:53:46;6.30;;;3.55;;
80778;SDS011;70170;47.856;10.956;2023-07-16T02:56:11;5.20;;;3.78;;
80778;SDS011;70170;47.856;10.956;2023-07-16T02:58:36;4.07;;;3.63;;
80778;SDS011;70170;47.856;10.956;2023-07-16T03:01:02;5.20;;;3.33;;
80778;SDS011;70170;47.856;10.956;2023-07-16T03:03:27;8.13;;;3.15;;
80778;SDS011;70170;47.856;10.956;2023-07-16T03:05:52;3.65;;;3.10;;
80778;SDS011;70170;47.856;10.956;2023-07-16T03:08:17;3.88;;;3.05;;
80778;SDS011;70170;47.856;10.956;2023-07-16T03:10:43;4.65;;;3.65;;
80778;SDS011;70170;47.856;10.956;2023-07-16T03:13:08;9.15;;;4.03;;
80778;SDS011;70170;47.856;10.956;2023-07-16T03:15:33;7.82;;;4.15;;
80778;SDS011;70170;47.856;10.956;2023-07-16T03:17:59;6.90;;;3.70;;
80778;SDS011;70170;47.856;10.956;2023-07-16T03:20:24;5.43;;;3.33;;
80778;SDS011;70170;47.856;10.956;2023-07-16T03:22:49;6.88;;;4.00;;
80778;SDS011;70170;47.856;10.956;2023-07-16T03:25:14;3.83;;;3.20;;
80778;SDS011;70170;47.856;10.956;2023-07-16T03:27:40;7.75;;;2.97;;
80778;SDS011;70170;47.856;10.956;2023-07-16T03:30:05;4.93;;;3.33;;
80778;SDS011;70170;47.856;10.956;2023-07-16T03:32:31;7.53;;;2.72;;
80778;SDS011;70170;47.856;10.956;2023-07-16T03:34:56;3.30;;;2.80;;
80778;SDS011;70170;47.856;10.956;2023-07-16T03:37:22;2.42;;;1.90;;
80778;SDS011;70170;47.856;10.956;2023-07-16T03:39:47;2.38;;;2.17;;
80778;SDS011;70170;47.856;10.956;2023-07-16T03:42:12;2.67;;;2.40;;
80778;SDS011;70170;47.856;10.956;2023-07-16T03:44:37;4.55;;;2.97;;
80778;SDS011;70170;47.856;10.956;2023-07-16T03:47:03;5.40;;;2.85;;
80778;SDS011;70170;47.856;10.956;2023-07-16T03:49:28;5.03;;;2.80;;
80778;SDS011;70170;47.856;10.956;2023-07-16T03:51:54;7.07;;;2.80;;
80778;SDS011;70170;47.856;10.956;2023-07-16T03:54:19;3.95;;;2.70;;
80778;SDS011;70170;47.856;10.956;2023-07-16T03:56:44;5.18;;;3.05;;
80778;SDS011;70170;47.856;10.956;2023-07-16T03:59:10;5.90;;;2.85;;
80778;SDS011;70170;47.856;10.956;2023-07-16T04:01:35;4.38;;;3.03;;
80778;SDS011;70170;47.856;10.956;2023-07-16T04:04:00;4.28;;;3.30;;
80778;SDS011;70170;47.856;10.956;2023-07-16T04:06:26;6.63;;;3.45;;
80778;SDS011;70170;47.856;10.956;2023-07-16T04:08:51;5.00;;;3.45;;
80778;SDS011;70170;47.856;10.956;2023-07-16T04:11:16;4.70;;;3.50;;
80778;SDS011;70170;47.856;10.956;2023-07-16T04:13:42;6.03;;;3.28;;
80778;SDS011;70170;47.856;10.956;2023-07-16T04:16:07;6.03;;;3.47;;
80778;SDS011;70170;47.856;10.956;2023-07-16T04:18:32;4.85;;;2.92;;
80778;SDS011;70170;47.856;10.956;2023-07-16T04:20:58;7.57;;;3.30;;
80778;SDS011;70170;47.856;10.956;2023-07-16T04:23:23;4.05;;;2.95;;
80778;SDS011;70170;47.856;10.956;2023-07-16T04:25:57;6.20;;;3.45;;
80778;SDS011;70170;47.856;10.956;2023-07-16T04:28:23;3.28;;;2.90;;
80778;SDS011;70170;47.856;10.956;2023-07-16T04:30:48;2.65;;;2.40;;
80778;SDS011;70170;47.856;10.956;2023-07-16T04:33:13;3.13;;;2.60;;
80778;SDS011;70170;47.856;10.956;2023-07-16T04:35:39;3.00;;;2.80;;
80778;SDS011;70170;47.856;10.956;2023-07-16T04:38:04;3.63;;;2.78;;
80778;SDS011;70170;47.856;10.956;2023-07-16T04:40:29;3.85;;;2.65;;
80778;SDS011;70170;47.856;10.956;2023-07-16T04:42:55;4.40;;;3.00;;
80778;SDS011;70170;47.856;10.956;2023-07-16T04:45:20;5.43;;;2.72;;
80778;SDS011;70170;47.856;10.956;2023-07-16T04:47:46;2.80;;;2.50;;
80778;SDS011;70170;47.856;10.956;2023-07-16T04:50:11;4.00;;;2.97;;
80778;SDS011;70170;47.856;10.956;2023-07-16T04:52:37;3.00;;;2.70;;
80778;SDS011;70170;47.856;10.956;2023-07-16T04:55:02;3.65;;;2.63;;
80778;SDS011;70170;47.856;10.956;2023-07-16T04:57:28;2.55;;;2.40;;
80778;SDS011;70170;47.856;10.956;2023-07-16T04:59:54;4.43;;;2.38;;
80778;SDS011;70170;47.856;10.956;2023-07-16T05:02:19;2.63;;;2.20;;
80778;SDS011;70170;47.856;10.956;2023-07-16T05:04:44;2.35;;;1.92;;
80778;SDS011;70170;47.856;10.956;2023-07-16T05:07:12;4.43;;;1.92;;
80778;SDS011;70170;47.856;10.956;2023-07-16T05:09:38;2.10;;;2.00;;
80778;SDS011;70170;47.856;10.956;2023-07-16T05:12:03;3.45;;;2.10;;
80778;SDS011;70170;47.856;10.956;2023-07-16T05:14:29;2.10;;;1.90;;
80778;SDS011;70170;47.856;10.956;2023-07-16T05:16:55;2.83;;;2.17;;
80778;SDS011;70170;47.856;10.956;2023-07-16T05:19:21;2.13;;;1.80;;
80778;SDS011;70170;47.856;10.956;2023-07-16T05:21:47;6.38;;;2.00;;
80778;SDS011;70170;47.856;10.956;2023-07-16T05:24:12;2.67;;;2.20;;
80778;SDS011;70170;47.856;10.956;2023-07-16T05:26:37;2.88;;;2.05;;
80778;SDS011;70170;47.856;10.956;2023-07-16T05:29:03;2.97;;;2.30;;
80778;SDS011;70170;47.856;10.956;2023-07-16T05:31:28;3.25;;;2.20;;
80778;SDS011;70170;47.856;10.956;2023-07-16T05:33:54;2.30;;;2.10;;
80778;SDS011;70170;47.856;10.956;2023-07-16T05:36:19;2.20;;;2.00;;
80778;SDS011;70170;47.856;10.956;2023-07-16T05:38:45;1.70;;;1.60;;
80778;SDS011;70170;47.856;10.956;2023-07-16T05:41:10;1.92;;;1.80;;
80778;SDS011;70170;47.856;10.956;2023-07-16T05:43:35;1.88;;;1.45;;
80778;SDS011;70170;47.856;10.956;2023-07-16T05:46:01;1.70;;;1.60;;
80778;SDS011;70170;47.856;10.956;2023-07-16T05:48:26;1.52;;;1.42;;
80778;SDS011;70170;47.856;10.956;2023-07-16T05:50:51;2.90;;;1.27;;
80778;SDS011;70170;47.856;10.956;2023-07-16T05:53:17;1.60;;;1.40;;
80778;SDS011;70170;47.856;10.956;2023-07-16T05:55:42;1.55;;;1.45;;
80778;SDS011;70170;47.856;10.956;2023-07-16T05:58:08;1.50;;;1.40;;
80778;SDS011;70170;47.856;10.956;2023-07-16T06:00:33;3.67;;;1.70;;
80778;SDS011;70170;47.856;10.956;2023-07-16T06:02:59;2.20;;;1.30;;
80778;SDS011;70170;47.856;10.956;2023-07-16T06:05:26;1.30;;;1.20;;
80778;SDS011;70170;47.856;10.956;2023-07-16T06:07:51;1.40;;;1.30;;
80778;SDS011;70170;47.856;10.956;2023-07-16T06:10:17;2.20;;;1.30;;
80778;SDS011;70170;47.856;10.956;2023-07-16T06:12:42;1.30;;;1.20;;
80778;SDS011;70170;47.856;10.956;2023-07-16T06:15:07;1.58;;;1.42;;
80778;SDS011;70170;47.856;10.956;2023-07-16T06:17:33;0.98;;;0.98;;
80778;SDS011;70170;47.856;10.956;2023-07-16T06:19:59;1.30;;;1.20;;
80778;SDS011;70170;47.856;10.956;2023-07-16T06:22:24;1.98;;;1.27;;
80778;SDS011;70170;47.856;10.956;2023-07-16T06:24:49;1.00;;;1.00;;
80778;SDS011;70170;47.856;10.956;2023-07-16T06:27:14;1.30;;;1.20;;
80778;SDS011;70170;47.856;10.956;2023-07-16T06:29:40;1.40;;;1.30;;
80778;SDS011;70170;47.856;10.956;2023-07-16T06:32:05;2.60;;;1.35;;
80778;SDS011;70170;47.856;10.956;2023-07-16T06:34:31;1.80;;;1.30;;
80778;SDS011;70170;47.856;10.956;2023-07-16T06:36:56;1.25;;;1.10;;
80778;SDS011;70170;47.856;10.956;2023-07-16T06:39:22;1.33;;;1.23;;
80778;SDS011;70170;47.856;10.956;2023-07-16T06:41:47;1.20;;;1.20;;
80778;SDS011;70170;47.856;10.956;2023-07-16T06:44:12;1.30;;;1.20;;
80778;SDS011;70170;47.856;10.956;2023-07-16T06:46:38;1.30;;;1.20;;
80778;SDS011;70170;47.856;10.956;2023-07-16T06:49:04;1.13;;;1.13;;
80778;SDS011;70170;47.856;10.956;2023-07-16T06:51:30;1.45;;;1.30;;
80778;SDS011;70170;47.856;10.956;2023-07-16T06:53:57;1.00;;;1.00;;
80778;SDS011;70170;47.856;10.956;2023-07-16T06:56:22;1.77;;;1.33;;
80778;SDS011;70170;47.856;10.956;2023-07-16T06:58:47;1.50;;;1.40;;
80778;SDS011;70170;47.856;10.956;2023-07-16T07:01:13;1.30;;;1.20;;
80778;SDS011;70170;47.856;10.956;2023-07-16T07:03:39;1.23;;;1.20;;
80778;SDS011;70170;47.856;10.956;2023-07-16T07:06:04;1.48;;;1.38;;
80778;SDS011;70170;47.856;10.956;2023-07-16T07:08:30;1.50;;;1.40;;
80778;SDS011;70170;47.856;10.956;2023-07-16T07:10:55;1.42;;;1.33;;
80778;SDS011;70170;47.856;10.956;2023-07-16T07:13:21;1.10;;;1.10;;
80778;SDS011;70170;47.856;10.956;2023-07-16T07:15:46;3.20;;;1.38;;
80778;SDS011;70170;47.856;10.956;2023-07-16T07:18:12;1.63;;;1.33;;
80778;SDS011;70170;47.856;10.956;2023-07-16T07:20:38;1.60;;;1.50;;
80778;SDS011;70170;47.856;10.956;2023-07-16T07:23:04;1.30;;;1.20;;
80778;SDS011;70170;47.856;10.956;2023-07-16T07:25:30;1.60;;;1.50;;
80778;SDS011;70170;47.856;10.956;2023-07-16T07:27:55;1.38;;;1.27;;
80778;SDS011;70170;47.856;10.956;2023-07-16T07:30:21;2.22;;;1.48;;
80778;SDS011;70170;47.856;10.956;2023-07-16T07:32:46;1.38;;;1.30;;
80778;SDS011;70170;47.856;10.956;2023-07-16T07:35:11;2.47;;;1.40;;
80778;SDS011;70170;47.856;10.956;2023-07-16T07:37:37;2.58;;;1.48;;
80778;SDS011;70170;47.856;10.956;2023-07-16T07:40:02;1.60;;;1.50;;
80778;SDS011;70170;47.856;10.956;2023-07-16T07:42:28;1.55;;;1.45;;
80778;SDS011;70170;47.856;10.956;2023-07-16T07:44:54;1.38;;;1.27;;
80778;SDS011;70170;47.856;10.956;2023-07-16T07:47:20;1.35;;;1.25;;
80778;SDS011;70170;47.856;10.956;2023-07-16T07:49:45;9.25;;;1.50;;
80778;SDS011;70170;47.856;10.956;2023-07-16T07:52:11;1.85;;;1.48;;
80778;SDS011;70170;47.856;10.956;2023-07-16T07:54:36;3.28;;;1.50;;
80778;SDS011;70170;47.856;10.956;2023-07-16T07:57:02;2.50;;;1.17;;
80778;SDS011;70170;47.856;10.956;2023-07-16T07:59:29;2.85;;;1.40;;
80778;SDS011;70170;47.856;10.956;2023-07-16T08:01:54;1.77;;;1.67;;
80778;SDS011;70170;47.856;10.956;2023-07-16T08:04:20;1.48;;;1.38;;
80778;SDS011;70170;47.856;10.956;2023-07-16T08:06:45;4.30;;;1.35;;
80778;SDS011;70170;47.856;10.956;2023-07-16T08:09:10;1.50;;;1.40;;
80778;SDS011;70170;47.856;10.956;2023-07-16T08:11:36;1.88;;;1.73;;
80778;SDS011;70170;47.856;10.956;2023-07-16T08:14:01;1.63;;;1.42;;
80778;SDS011;70170;47.856;10.956;2023-07-16T08:16:26;1.83;;;1.25;;
80778;SDS011;70170;47.856;10.956;2023-07-16T08:18:52;1.50;;;1.20;;
80778;SDS011;70170;47.856;10.956;2023-07-16T08:21:17;1.55;;;1.45;;
80778;SDS011;70170;47.856;10.956;2023-07-16T08:23:45;3.35;;;1.70;;
80778;SDS011;70170;47.856;10.956;2023-07-16T08:26:14;1.40;;;1.30;;
80778;SDS011;70170;47.856;10.956;2023-07-16T08:28:39;1.30;;;1.30;;
80778;SDS011;70170;47.856;10.956;2023-07-16T08:31:04;2.03;;;1.50;;
80778;SDS011;70170;47.856;10.956;2023-07-16T08:33:30;1.58;;;1.48;;
80778;SDS011;70170;47.856;10.956;2023-07-16T08:35:55;1.77;;;1.40;;
80778;SDS011;70170;47.856;10.956;2023-07-16T08:38:20;1.70;;;1.60;;
80778;SDS011;70170;47.856;10.956;2023-07-16T08:40:47;3.53;;;1.40;;
80778;SDS011;70170;47.856;10.956;2023-07-16T08:43:13;1.88;;;1.48;;
80778;SDS011;70170;47.856;10.956;2023-07-16T08:45:41;1.92;;;1.35;;
80778;SDS011;70170;47.856;10.956;2023-07-16T08:48:10;1.60;;;1.50;;
80778;SDS011;70170;47.856;10.956;2023-07-16T08:50:36;1.40;;;1.30;;
80778;SDS011;70170;47.856;10.956;2023-07-16T08:53:06;1.70;;;1.35;;
80778;SDS011;70170;47.856;10.956;2023-07-16T08:55:32;1.55;;;1.38;;
80778;SDS011;70170;47.856;10.956;2023-07-16T08:57:58;3.25;;;1.52;;
80778;SDS011;70170;47.856;10.956;2023-07-16T09:00:24;1.40;;;1.30;;
80778;SDS011;70170;47.856;10.956;2023-07-16T09:02:54;1.70;;;1.60;;
80778;SDS011;70170;47.856;10.956;2023-07-16T09:05:20;1.70;;;1.60;;
80778;SDS011;70170;47.856;10.956;2023-07-16T09:07:47;2.13;;;1.60;;
80778;SDS011;70170;47.856;10.956;2023-07-16T09:10:12;1.70;;;1.60;;
80778;SDS011;70170;47.856;10.956;2023-07-16T09:12:44;2.20;;;1.50;;
80778;SDS011;70170;47.856;10.956;2023-07-16T09:15:11;1.45;;;1.38;;
80778;SDS011;70170;47.856;10.956;2023-07-16T09:17:38;3.00;;;1.60;;
80778;SDS011;70170;47.856;10.956;2023-07-16T09:20:04;1.60;;;1.50;;
80778;SDS011;70170;47.856;10.956;2023-07-16T09:22:33;1.45;;;1.35;;
80778;SDS011;70170;47.856;10.956;2023-07-16T09:25:02;2.05;;;1.50;;
80778;SDS011;70170;47.856;10.956;2023-07-16T09:27:28;3.38;;;1.40;;
80778;SDS011;70170;47.856;10.956;2023-07-16T09:29:54;1.75;;;1.50;;
80778;SDS011;70170;47.856;10.956;2023-07-16T09:32:20;2.60;;;1.55;;
80778;SDS011;70170;47.856;10.956;2023-07-16T09:34:48;1.92;;;1.13;;
80778;SDS011;70170;47.856;10.956;2023-07-16T09:37:14;1.52;;;1.42;;
80778;SDS011;70170;47.856;10.956;2023-07-16T09:39:42;1.60;;;1.50;;
80778;SDS011;70170;47.856;10.956;2023-07-16T09:42:11;1.38;;;1.30;;
80778;SDS011;70170;47.856;10.956;2023-07-16T09:44:37;1.35;;;1.27;;
80778;SDS011;70170;47.856;10.956;2023-07-16T09:47:03;1.35;;;1.25;;
80778;SDS011;70170;47.856;10.956;2023-07-16T09:49:28;1.60;;;1.50;;
80778;SDS011;70170;47.856;10.956;2023-07-16T09:51:56;1.38;;;1.30;;
80778;SDS011;70170;47.856;10.956;2023-07-16T09:54:23;1.60;;;1.30;;
80778;SDS011;70170;47.856;10.956;2023-07-16T09:56:50;1.55;;;1.45;;
80778;SDS011;70170;47.856;10.956;2023-07-16T09:59:23;1.48;;;1.38;;
80778;SDS011;70170;47.856;10.956;2023-07-16T10:01:49;1.20;;;1.10;;
80778;SDS011;70170;47.856;10.956;2023-07-16T10:04:17;1.45;;;1.30;;
80778;SDS011;70170;47.856;10.956;2023-07-16T10:06:57;1.42;;;1.33;;
80778;SDS011;70170;47.856;10.956;2023-07-16T10:09:39;1.45;;;1.30;;
80778;SDS011;70170;47.856;10.956;2023-07-16T10:12:16;1.38;;;1.25;;
80778;SDS011;70170;47.856;10.956;2023-07-16T10:14:43;1.67;;;1.58;;
80778;SDS011;70170;47.856;10.956;2023-07-16T10:17:13;2.75;;;1.60;;
80778;SDS011;70170;47.856;10.956;2023-07-16T10:19:50;1.52;;;1.42;;
80778;SDS011;70170;47.856;10.956;2023-07-16T10:22:31;1.55;;;1.40;;
80778;SDS011;70170;47.856;10.956;2023-07-16T10:24:57;1.70;;;1.60;;
80778;SDS011;70170;47.856;10.956;2023-07-16T10:27:30;1.60;;;1.50;;
80778;SDS011;70170;47.856;10.956;2023-07-16T10:29:56;1.48;;;1.38;;
80778;SDS011;70170;47.856;10.956;2023-07-16T10:32:23;1.60;;;1.50;;
80778;SDS011;70170;47.856;10.956;2023-07-16T10:34:52;1.73;;;1.30;;
80778;SDS011;70170;47.856;10.956;2023-07-16T10:37:17;3.17;;;1.58;;
80778;SDS011;70170;47.856;10.956;2023-07-16T10:39:49;1.60;;;1.30;;
80778;SDS011;70170;47.856;10.956;2023-07-16T10:42:16;1.67;;;1.58;;
80778;SDS011;70170;47.856;10.956;2023-07-16T10:44:42;1.50;;;1.40;;
80778;SDS011;70170;47.856;10.956;2023-07-16T10:47:08;1.77;;;1.67;;
80778;SDS011;70170;47.856;10.956;2023-07-16T10:49:34;2.05;;;1.67;;
80778;SDS011;70170;47.856;10.956;2023-07-16T10:52:00;1.60;;;1.50;;
80778;SDS011;70170;47.856;10.956;2023-07-16T10:54:26;1.38;;;1.33;;
80778;SDS011;70170;47.856;10.956;2023-07-16T10:56:51;1.70;;;1.60;;
80778;SDS011;70170;47.856;10.956;2023-07-16T10:59:17;1.67;;;1.40;;
80778;SDS011;70170;47.856;10.956;2023-07-16T11:01:42;1.35;;;1.25;;
80778;SDS011;70170;47.856;10.956;2023-07-16T11:04:08;1.60;;;1.50;;
80778;SDS011;70170;47.856;10.956;2023-07-16T11:06:34;1.50;;;1.40;;
80778;SDS011;70170;47.856;10.956;2023-07-16T11:09:10;1.60;;;1.50;;
80778;SDS011;70170;47.856;10.956;2023-07-16T11:11:36;1.30;;;1.30;;
80778;SDS011;70170;47.856;10.956;2023-07-16T11:14:05;1.80;;;1.70;;
80778;SDS011;70170;47.856;10.956;2023-07-16T11:16:34;1.73;;;1.63;;
80778;SDS011;70170;47.856;10.956;2023-07-16T11:19:01;1.50;;;1.40;;
80778;SDS011;70170;47.856;10.956;2023-07-16T11:21:28;1.60;;;1.50;;
80778;SDS011;70170;47.856;10.956;2023-07-16T11:23:53;2.78;;;1.50;;
80778;SDS011;70170;47.856;10.956;2023-07-16T11:26:19;1.60;;;1.50;;
80778;SDS011;70170;47.856;10.956;2023-07-16T11:28:44;1.83;;;1.73;;
80778;SDS011;70170;47.856;10.956;2023-07-16T11:31:10;1.60;;;1.50;;
80778;SDS011;70170;47.856;10.956;2023-07-16T11:33:37;1.70;;;1.60;;
80778;SDS011;70170;47.856;10.956;2023-07-16T11:36:02;1.58;;;1.42;;
80778;SDS011;70170;47.856;10.956;2023-07-16T11:38:28;1.63;;;1.52;;
80778;SDS011;70170;47.856;10.956;2023-07-16T11:40:53;1.60;;;1.50;;
80778;SDS011;70170;47.856;10.956;2023-07-16T11:43:18;2.03;;;1.50;;
80778;SDS011;70170;47.856;10.956;2023-07-16T11:45:47;1.58;;;1.48;;
80778;SDS011;70170;47.856;10.956;2023-07-16T11:48:13;1.55;;;1.45;;
80778;SDS011;70170;47.856;10.956;2023-07-16T11:50:39;2.00;;;1.50;;
80778;SDS011;70170;47.856;10.956;2023-07-16T11:53:04;1.70;;;1.60;;
80778;SDS011;70170;47.856;10.956;2023-07-16T11:55:30;1.45;;;1.35;;
80778;SDS011;70170;47.856;10.956;2023-07-16T11:57:55;1.92;;;1.70;;
80778;SDS011;70170;47.856;10.956;2023-07-16T12:00:24;1.98;;;1.77;;
80778;SDS011;70170;47.856;10.956;2023-07-16T12:02:50;4.07;;;2.00;;
80778;SDS011;70170;47.856;10.956;2023-07-16T12:05:18;1.70;;;1.60;;
80778;SDS011;70170;47.856;10.956;2023-07-16T12:07:49;1.88;;;1.60;;
80778;SDS011;70170;47.856;10.956;2023-07-16T12:10:14;1.75;;;1.65;;
80778;SDS011;70170;47.856;10.956;2023-07-16T12:12:40;2.28;;;1.67;;
80778;SDS011;70170;47.856;10.956;2023-07-16T12:15:06;5.00;;;1.67;;
80778;SDS011;70170;47.856;10.956;2023-07-16T12:17:32;1.77;;;1.67;;
80778;SDS011;70170;47.856;10.956;2023-07-16T12:19:58;1.75;;;1.52;;
80778;SDS011;70170;47.856;10.956;2023-07-16T12:22:23;1.80;;;1.70;;
80778;SDS011;70170;47.856;10.956;2023-07-16T12:24:49;1.73;;;1.63;;
80778;SDS011;70170;47.856;10.956;2023-07-16T12:27:14;2.22;;;2.03;;
80778;SDS011;70170;47.856;10.956;2023-07-16T12:29:41;1.95;;;1.85;;
80778;SDS011;70170;47.856;10.956;2023-07-16T12:32:07;1.90;;;1.80;;
80778;SDS011;70170;47.856;10.956;2023-07-16T12:34:33;1.65;;;1.55;;
80778;SDS011;70170;47.856;10.956;2023-07-16T12:36:58;2.30;;;2.08;;
80778;SDS011;70170;47.856;10.956;2023-07-16T12:39:24;2.10;;;1.90;;
80778;SDS011;70170;47.856;10.956;2023-07-16T12:41:49;2.13;;;1.92;;
80778;SDS011;70170;47.856;10.956;2023-07-16T12:44:14;2.03;;;1.80;;
80778;SDS011;70170;47.856;10.956;2023-07-16T12:46:40;1.80;;;1.70;;
80778;SDS011;70170;47.856;10.956;2023-07-16T12:49:05;2.10;;;2.00;;
80778;SDS011;70170;47.856;10.956;2023-07-16T12:51:30;3.80;;;1.85;;
80778;SDS011;70170;47.856;10.956;2023-07-16T12:53:56;2.65;;;1.80;;
80778;SDS011;70170;47.856;10.956;2023-07-16T12:56:21;2.10;;;1.88;;
80778;SDS011;70170;47.856;10.956;2023-07-16T12:58:49;2.00;;;1.80;;
80778;SDS011;70170;47.856;10.956;2023-07-16T13:01:14;3.88;;;1.60;;
80778;SDS011;70170;47.856;10.956;2023-07-16T13:03:40;2.05;;;1.90;;
80778;SDS011;70170;47.856;10.956;2023-07-16T13:06:05;1.60;;;1.50;;
80778;SDS011;70170;47.856;10.956;2023-07-16T13:08:30;1.70;;;1.60;;
80778;SDS011;70170;47.856;10.956;2023-07-16T13:10:56;2.03;;;1.90;;
80778;SDS011;70170;47.856;10.956;2023-07-16T13:13:22;2.38;;;1.70;;
80778;SDS011;70170;47.856;10.956;2023-07-16T13:15:47;1.52;;;1.42;;
80778;SDS011;70170;47.856;10.956;2023-07-16T13:18:12;3.33;;;1.67;;
80778;SDS011;70170;47.856;10.956;2023-07-16T13:20:38;2.10;;;2.00;;
80778;SDS011;70170;47.856;10.956;2023-07-16T13:23:03;1.77;;;1.67;;
80778;SDS011;70170;47.856;10.956;2023-07-16T13:25:29;1.65;;;1.55;;
80778;SDS011;70170;47.856;10.956;2023-07-16T13:27:55;1.88;;;1.75;;
80778;SDS011;70170;47.856;10.956;2023-07-16T13:30:20;2.28;;;1.70;;
80778;SDS011;70170;47.856;10.956;2023-07-16T13:32:46;1.95;;;1.70;;
80778;SDS011;70170;47.856;10.956;2023-07-16T13:35:13;1.55;;;1.45;;
80778;SDS011;70170;47.856;10.956;2023-07-16T13:37:39;2.05;;;1.50;;
80778;SDS011;70170;47.856;10.956;2023-07-16T13:40:04;2.10;;;1.90;;
80778;SDS011;70170;47.856;10.956;2023-07-16T13:42:30;1.60;;;1.50;;
80778;SDS011;70170;47.856;10.956;2023-07-16T13:44:55;1.67;;;1.58;;
80778;SDS011;70170;47.856;10.956;2023-07-16T13:47:20;1.67;;;1.58;;
80778;SDS011;70170;47.856;10.956;2023-07-16T13:49:46;3.00;;;1.80;;
80778;SDS011;70170;47.856;10.956;2023-07-16T13:52:11;1.98;;;1.88;;
80778;SDS011;70170;47.856;10.956;2023-07-16T13:54:37;2.10;;;1.90;;
80778;SDS011;70170;47.856;10.956;2023-07-16T13:57:02;1.70;;;1.60;;
80778;SDS011;70170;47.856;10.956;2023-07-16T13:59:27;1.80;;;1.70;;
80778;SDS011;70170;47.856;10.956;2023-07-16T14:01:59;1.92;;;1.73;;
80778;SDS011;70170;47.856;10.956;2023-07-16T14:04:28;1.92;;;1.83;;
80778;SDS011;70170;47.856;10.956;2023-07-16T14:06:54;1.90;;;1.65;;
80778;SDS011;70170;47.856;10.956;2023-07-16T14:09:20;1.75;;;1.50;;
80778;SDS011;70170;47.856;10.956;2023-07-16T14:11:45;1.80;;;1.70;;
80778;SDS011;70170;47.856;10.956;2023-07-16T14:14:13;1.60;;;1.50;;
80778;SDS011;70170;47.856;10.956;2023-07-16T14:16:42;1.50;;;1.40;;
80778;SDS011;70170;47.856;10.956;2023-07-16T14:19:09;3.55;;;1.50;;
80778;SDS011;70170;47.856;10.956;2023-07-16T14:21:34;1.70;;;1.60;;
80778;SDS011;70170;47.856;10.956;2023-07-16T14:24:00;2.63;;;1.88;;
80778;SDS011;70170;47.856;10.956;2023-07-16T14:26:25;7.82;;;2.30;;
80778;SDS011;70170;47.856;10.956;2023-07-16T14:28:50;1.92;;;1.83;;
80778;SDS011;70170;47.856;10.956;2023-07-16T14:31:15;1.67;;;1.58;;